Angel Fire, NM (87710)

5:09 PM MDT on October 20, 2014 (GMT -0600)
NW face of Angel Fire Ski Mountain | Change Station
CLOSE
Current Station
Personal Weather Station
Location: Angel Fire, NM
Elevation: 8907 ft
Nearby Weather Stations

Elev 8907 ft 36.39 °N, 105.26 °W | Updated 10 minutes ago

Clear
Clear
54.8 °F
Feels Like 54.8 °F
N
0.0
Wind Variable Wind from North
Gusts 4.0 mph

Today
High -- | Low -- °F
--% Chance of Precip.
Yesterday
High -- | Low -- °F
Precip. -- in
7:12 AM 6:18 PM
Waning Crescent, 8% visible
Pressure 30.29 in
Visibility 10.0 miles
Clouds Clear
Dew Point 34 °F
Humidity 45%
Rainfall 0.00 in
Snow Depth Not available.
UV 0.5 out of 12
Pollen 2.30 out of 12
Air Quality Not available.
Flu Activity Sporadic
METAR KAXX 202255Z AUTO 11009KT 10SM CLR 15/M02 A3029 RMK AO2 T01531025

More Conditions Fewer Conditions

Pressure 30.29 in
Visibility 10.0 miles
Clouds Clear
Dew Point 34 °F
Humidity 45%
Rainfall 0.00 in
Snow Depth Not available.
UV 0.5 out of 12
Pollen 2.30 out of 12
Air Quality Not available.
Flu Activity Sporadic
METAR KAXX 202255Z AUTO 11009KT 10SM CLR 15/M02 A3029 RMK AO2 T01531025

More Conditions Fewer Conditions

Nowcast | as of 4:03 PM MDT on October 20, 2014

Through early evening...showers and a few thunderstorms will continue over the northern mountains and upper Rio Grande Valley. Rainfall amounts will generally be around a tenth of an inch or less...though very localized areas may see up to one half inch. Areas that may be affected through 530 PM include Chama...Tierra Amarilla...Tres Piedras...Jemez Springs...and Cowles.

×

10-Day Weather Forecast

Almanac

Astronomy

Oct. 20, 2014 Rise Set
Actual Time 7:12 AM MDT 6:18 PM MDT
Civil Twilight 6:46 AM MDT 6:44 PM MDT
Nautical Twilight 6:16 AM MDT 7:14 PM MDT
Astronomical Twilight 5:46 AM MDT 7:44 PM MDT
Moon 4:08 AM MDT 4:38 PM MDT
Length of Visible Light 11h 57m
Length of Day
11h 05m
Tomorrow will be 2m 11s shorter.
Waning Crescent, 8% of the Moon is Illuminated
Today
Waning Crescent
Oct 23
New
Oct 30
First Quarter
Nov 6
Full
Nov 14
Last Quarter

Today's Extremes

State Highs State Lows

Community

WunderPhotos

Upload Photos

1,763,544 photos uploaded!

WunderBlogs® & News

By Dr. Jeff Masters
Director of Meteorology, Weather Underground
By Kari Strenfel
Meteorologist, Weather Underground
By Christopher C. Burt
Weather Historian, Weather Underground
October 20, 2014
October 20, 2014
October 20, 2014

Nearby

Snow Depth

Station Depth Elevation
Gallegos Peak 0 in 9800 ft
North Costilla 0 in 10600 ft
Wesner Springs 3 in 11120 ft
Santa Fe 0 in 11445 ft
Chamita 0 in 8400 ft

Earthquake Activity

City Distance Mag. Time & Date
Trinidad, Colorado 61 miles 2.5 10:01 PM MDT
2014-10-19
Trinidad, Colorado 47 miles 3.8 11:01 AM MDT
2014-10-17
Minimum magnitude displayed is 2.5.

Coastal Water Temperatures

Place Temperature
No Stations Reporting

Nearby Weather Stations